sensor_id;sensor_type;location;lat;lon;timestamp;temperature;humidity
18613;DHT22;9436;52.152;21.032;2022-12-08T00:01:38;3.20;99.90
18613;DHT22;9436;52.152;21.032;2022-12-08T00:04:06;3.10;99.90
18613;DHT22;9436;52.152;21.032;2022-12-08T00:06:35;3.00;99.90
18613;DHT22;9436;52.152;21.032;2022-12-08T00:09:24;3.10;99.90
18613;DHT22;9436;52.152;21.032;2022-12-08T00:11:53;3.00;99.90
18613;DHT22;9436;52.152;21.032;2022-12-08T00:14:23;3.00;99.90
18613;DHT22;9436;52.152;21.032;2022-12-08T00:16:50;3.00;99.90
18613;DHT22;9436;52.152;21.032;2022-12-08T00:19:17;2.90;99.90
18613;DHT22;9436;52.152;21.032;2022-12-08T00:21:44;2.90;99.90
18613;DHT22;9436;52.152;21.032;2022-12-08T00:24:11;2.90;99.90
18613;DHT22;9436;52.152;21.032;2022-12-08T00:26:40;3.00;99.90
18613;DHT22;9436;52.152;21.032;2022-12-08T00:29:07;2.90;99.90
18613;DHT22;9436;52.152;21.032;2022-12-08T00:31:34;2.70;99.90
18613;DHT22;9436;52.152;21.032;2022-12-08T00:34:01;2.80;99.90
18613;DHT22;9436;52.152;21.032;2022-12-08T00:36:28;2.90;99.90
18613;DHT22;9436;52.152;21.032;2022-12-08T00:38:56;2.90;99.90
18613;DHT22;9436;52.152;21.032;2022-12-08T00:41:25;2.90;99.90
18613;DHT22;9436;52.152;21.032;2022-12-08T00:44:08;2.90;99.90
18613;DHT22;9436;52.152;21.032;2022-12-08T00:46:36;3.00;99.90
18613;DHT22;9436;52.152;21.032;2022-12-08T00:49:03;3.00;99.90
18613;DHT22;9436;52.152;21.032;2022-12-08T00:51:31;3.00;99.90
18613;DHT22;9436;52.152;21.032;2022-12-08T00:53:58;3.00;99.90
18613;DHT22;9436;52.152;21.032;2022-12-08T00:56:26;3.00;99.90
18613;DHT22;9436;52.152;21.032;2022-12-08T00:58:53;2.90;99.90
18613;DHT22;9436;52.152;21.032;2022-12-08T01:01:21;3.00;99.90
18613;DHT22;9436;52.152;21.032;2022-12-08T01:03:48;2.90;99.90
18613;DHT22;9436;52.152;21.032;2022-12-08T01:06:15;2.90;99.90
18613;DHT22;9436;52.152;21.032;2022-12-08T01:08:43;2.80;99.90
18613;DHT22;9436;52.152;21.032;2022-12-08T01:11:11;2.90;99.90
18613;DHT22;9436;52.152;21.032;2022-12-08T01:13:39;2.80;99.90
18613;DHT22;9436;52.152;21.032;2022-12-08T01:16:07;2.70;99.90
18613;DHT22;9436;52.152;21.032;2022-12-08T01:18:35;2.70;99.90
18613;DHT22;9436;52.152;21.032;2022-12-08T01:21:03;2.60;99.90
18613;DHT22;9436;52.152;21.032;2022-12-08T01:23:30;2.70;99.90
18613;DHT22;9436;52.152;21.032;2022-12-08T01:26:01;2.60;99.90
18613;DHT22;9436;52.152;21.032;2022-12-08T01:28:29;2.70;99.90
18613;DHT22;9436;52.152;21.032;2022-12-08T01:30:56;2.60;99.90
18613;DHT22;9436;52.152;21.032;2022-12-08T01:33:24;2.60;99.90
18613;DHT22;9436;52.152;21.032;2022-12-08T01:35:53;2.60;99.90
18613;DHT22;9436;52.152;21.032;2022-12-08T01:38:21;2.60;99.90
18613;DHT22;9436;52.152;21.032;2022-12-08T01:40:48;2.50;99.90
18613;DHT22;9436;52.152;21.032;2022-12-08T01:43:16;2.50;99.90
18613;DHT22;9436;52.152;21.032;2022-12-08T01:45:44;2.50;99.90
18613;DHT22;9436;52.152;21.032;2022-12-08T01:48:15;2.60;99.90
18613;DHT22;9436;52.152;21.032;2022-12-08T01:50:44;2.60;99.90
18613;DHT22;9436;52.152;21.032;2022-12-08T01:53:17;2.50;99.90
18613;DHT22;9436;52.152;21.032;2022-12-08T01:55:48;2.50;99.90
18613;DHT22;9436;52.152;21.032;2022-12-08T01:58:20;2.50;99.90
18613;DHT22;9436;52.152;21.032;2022-12-08T02:00:50;2.50;99.90
18613;DHT22;9436;52.152;21.032;2022-12-08T02:03:21;2.60;99.90
18613;DHT22;9436;52.152;21.032;2022-12-08T02:05:50;2.60;99.90
18613;DHT22;9436;52.152;21.032;2022-12-08T02:08:19;2.60;99.90
18613;DHT22;9436;52.152;21.032;2022-12-08T02:10:50;2.60;99.90
18613;DHT22;9436;52.152;21.032;2022-12-08T02:13:19;2.60;99.90
18613;DHT22;9436;52.152;21.032;2022-12-08T02:15:55;2.60;99.90
18613;DHT22;9436;52.152;21.032;2022-12-08T02:18:34;2.50;99.90
18613;DHT22;9436;52.152;21.032;2022-12-08T02:21:08;2.50;99.90
18613;DHT22;9436;52.152;21.032;2022-12-08T02:23:46;2.50;99.90
18613;DHT22;9436;52.152;21.032;2022-12-08T02:26:56;2.30;99.90
18613;DHT22;9436;52.152;21.032;2022-12-08T02:35:41;2.40;99.90
18613;DHT22;9436;52.152;21.032;2022-12-08T02:38:19;2.40;99.90
18613;DHT22;9436;52.152;21.032;2022-12-08T02:40:55;2.30;99.90
18613;DHT22;9436;52.152;21.032;2022-12-08T02:43:33;2.20;99.90
18613;DHT22;9436;52.152;21.032;2022-12-08T02:46:05;2.30;99.90
18613;DHT22;9436;52.152;21.032;2022-12-08T02:48:34;2.40;99.90
18613;DHT22;9436;52.152;21.032;2022-12-08T02:51:03;2.30;99.90
18613;DHT22;9436;52.152;21.032;2022-12-08T02:53:31;2.40;99.90
18613;DHT22;9436;52.152;21.032;2022-12-08T02:56:06;2.40;99.90
18613;DHT22;9436;52.152;21.032;2022-12-08T02:58:48;2.40;99.90
18613;DHT22;9436;52.152;21.032;2022-12-08T03:01:43;2.40;99.90
18613;DHT22;9436;52.152;21.032;2022-12-08T03:04:21;2.50;99.90
18613;DHT22;9436;52.152;21.032;2022-12-08T03:06:59;2.40;99.90
18613;DHT22;9436;52.152;21.032;2022-12-08T03:09:36;2.40;99.90
18613;DHT22;9436;52.152;21.032;2022-12-08T03:12:11;2.40;99.90
18613;DHT22;9436;52.152;21.032;2022-12-08T03:14:43;2.40;99.90
18613;DHT22;9436;52.152;21.032;2022-12-08T03:17:12;2.30;99.90
18613;DHT22;9436;52.152;21.032;2022-12-08T03:19:42;2.30;99.90
18613;DHT22;9436;52.152;21.032;2022-12-08T03:22:12;2.30;99.90
18613;DHT22;9436;52.152;21.032;2022-12-08T03:24:43;2.20;99.90
18613;DHT22;9436;52.152;21.032;2022-12-08T03:27:13;2.20;99.90
18613;DHT22;9436;52.152;21.032;2022-12-08T03:29:41;2.20;99.90
18613;DHT22;9436;52.152;21.032;2022-12-08T03:32:14;2.20;99.90
18613;DHT22;9436;52.152;21.032;2022-12-08T03:34:46;2.20;99.90
18613;DHT22;9436;52.152;21.032;2022-12-08T03:37:15;2.10;99.90
18613;DHT22;9436;52.152;21.032;2022-12-08T03:39:43;2.10;99.90
18613;DHT22;9436;52.152;21.032;2022-12-08T03:42:09;2.10;99.90
18613;DHT22;9436;52.152;21.032;2022-12-08T03:44:36;2.10;99.90
18613;DHT22;9436;52.152;21.032;2022-12-08T03:47:04;2.10;99.90
18613;DHT22;9436;52.152;21.032;2022-12-08T03:49:31;2.10;99.90
18613;DHT22;9436;52.152;21.032;2022-12-08T03:51:58;2.10;99.90
18613;DHT22;9436;52.152;21.032;2022-12-08T03:54:26;2.10;99.90
18613;DHT22;9436;52.152;21.032;2022-12-08T03:56:53;2.00;99.90
18613;DHT22;9436;52.152;21.032;2022-12-08T03:59:20;2.00;99.90
18613;DHT22;9436;52.152;21.032;2022-12-08T04:01:47;2.10;99.90
18613;DHT22;9436;52.152;21.032;2022-12-08T04:04:14;2.10;99.90
18613;DHT22;9436;52.152;21.032;2022-12-08T04:06:41;2.10;99.90
18613;DHT22;9436;52.152;21.032;2022-12-08T04:09:08;2.10;99.90
18613;DHT22;9436;52.152;21.032;2022-12-08T04:11:36;2.10;99.90
18613;DHT22;9436;52.152;21.032;2022-12-08T04:14:03;2.10;99.90
18613;DHT22;9436;52.152;21.032;2022-12-08T04:16:31;1.90;99.90
18613;DHT22;9436;52.152;21.032;2022-12-08T04:18:57;1.90;99.90
18613;DHT22;9436;52.152;21.032;2022-12-08T04:21:25;2.00;99.90
18613;DHT22;9436;52.152;21.032;2022-12-08T04:23:52;2.10;99.90
18613;DHT22;9436;52.152;21.032;2022-12-08T04:26:19;2.20;99.90
18613;DHT22;9436;52.152;21.032;2022-12-08T04:28:48;2.20;99.90
18613;DHT22;9436;52.152;21.032;2022-12-08T04:31:15;2.20;99.90
18613;DHT22;9436;52.152;21.032;2022-12-08T04:33:42;2.30;99.90
18613;DHT22;9436;52.152;21.032;2022-12-08T04:36:10;2.40;99.90
18613;DHT22;9436;52.152;21.032;2022-12-08T04:38:38;2.40;99.90
18613;DHT22;9436;52.152;21.032;2022-12-08T04:41:05;2.50;99.90
18613;DHT22;9436;52.152;21.032;2022-12-08T04:43:32;2.50;99.90
18613;DHT22;9436;52.152;21.032;2022-12-08T04:46:01;2.60;99.90
18613;DHT22;9436;52.152;21.032;2022-12-08T04:48:28;2.60;99.90
18613;DHT22;9436;52.152;21.032;2022-12-08T04:50:55;2.60;99.90
18613;DHT22;9436;52.152;21.032;2022-12-08T04:53:22;2.60;99.90
18613;DHT22;9436;52.152;21.032;2022-12-08T04:55:51;2.60;99.90
18613;DHT22;9436;52.152;21.032;2022-12-08T04:58:18;2.60;99.90
18613;DHT22;9436;52.152;21.032;2022-12-08T05:00:46;2.60;99.90
18613;DHT22;9436;52.152;21.032;2022-12-08T05:03:15;2.60;99.90
18613;DHT22;9436;52.152;21.032;2022-12-08T05:05:43;2.60;99.90
18613;DHT22;9436;52.152;21.032;2022-12-08T05:08:11;2.60;99.90
18613;DHT22;9436;52.152;21.032;2022-12-08T05:10:38;2.50;99.90
18613;DHT22;9436;52.152;21.032;2022-12-08T05:13:05;2.60;99.90
18613;DHT22;9436;52.152;21.032;2022-12-08T05:15:32;2.50;99.90
18613;DHT22;9436;52.152;21.032;2022-12-08T05:17:59;2.50;99.90
18613;DHT22;9436;52.152;21.032;2022-12-08T05:20:28;2.50;99.90
18613;DHT22;9436;52.152;21.032;2022-12-08T05:22:55;2.50;99.90
18613;DHT22;9436;52.152;21.032;2022-12-08T05:25:22;2.60;99.90
18613;DHT22;9436;52.152;21.032;2022-12-08T05:27:49;2.60;99.90
18613;DHT22;9436;52.152;21.032;2022-12-08T05:30:16;2.60;99.90
18613;DHT22;9436;52.152;21.032;2022-12-08T05:32:43;2.60;99.90
18613;DHT22;9436;52.152;21.032;2022-12-08T05:35:10;2.60;99.90
18613;DHT22;9436;52.152;21.032;2022-12-08T05:37:38;2.60;99.90
18613;DHT22;9436;52.152;21.032;2022-12-08T05:40:06;2.60;99.90
18613;DHT22;9436;52.152;21.032;2022-12-08T05:42:33;2.50;99.90
18613;DHT22;9436;52.152;21.032;2022-12-08T05:45:00;2.60;99.90
18613;DHT22;9436;52.152;21.032;2022-12-08T05:47:28;2.60;99.90
18613;DHT22;9436;52.152;21.032;2022-12-08T05:49:56;2.70;99.90
18613;DHT22;9436;52.152;21.032;2022-12-08T05:52:23;2.60;99.90
18613;DHT22;9436;52.152;21.032;2022-12-08T05:54:52;2.60;99.90
18613;DHT22;9436;52.152;21.032;2022-12-08T05:57:19;2.60;99.90
18613;DHT22;9436;52.152;21.032;2022-12-08T05:59:46;2.60;99.90
18613;DHT22;9436;52.152;21.032;2022-12-08T06:02:13;2.70;99.90
18613;DHT22;9436;52.152;21.032;2022-12-08T06:04:40;2.60;99.90
18613;DHT22;9436;52.152;21.032;2022-12-08T06:07:07;2.70;99.90
18613;DHT22;9436;52.152;21.032;2022-12-08T06:09:35;2.70;99.90
18613;DHT22;9436;52.152;21.032;2022-12-08T06:12:04;2.70;99.90
18613;DHT22;9436;52.152;21.032;2022-12-08T06:14:31;2.80;99.90
18613;DHT22;9436;52.152;21.032;2022-12-08T06:16:58;2.80;99.90
18613;DHT22;9436;52.152;21.032;2022-12-08T06:19:25;2.90;99.90
18613;DHT22;9436;52.152;21.032;2022-12-08T06:21:52;2.90;99.90
18613;DHT22;9436;52.152;21.032;2022-12-08T06:24:19;2.90;99.90
18613;DHT22;9436;52.152;21.032;2022-12-08T06:26:46;2.90;99.90
18613;DHT22;9436;52.152;21.032;2022-12-08T06:29:14;3.10;99.90
18613;DHT22;9436;52.152;21.032;2022-12-08T06:31:41;3.10;99.90
18613;DHT22;9436;52.152;21.032;2022-12-08T06:34:08;3.10;99.90
18613;DHT22;9436;52.152;21.032;2022-12-08T06:36:35;3.10;99.90
18613;DHT22;9436;52.152;21.032;2022-12-08T06:39:03;3.10;99.90
18613;DHT22;9436;52.152;21.032;2022-12-08T06:41:30;2.90;99.90
18613;DHT22;9436;52.152;21.032;2022-12-08T06:43:57;3.20;99.90
18613;DHT22;9436;52.152;21.032;2022-12-08T06:46:25;3.10;99.90
18613;DHT22;9436;52.152;21.032;2022-12-08T06:48:53;3.20;99.90
18613;DHT22;9436;52.152;21.032;2022-12-08T06:51:20;3.40;99.90
18613;DHT22;9436;52.152;21.032;2022-12-08T06:53:48;3.50;99.90
18613;DHT22;9436;52.152;21.032;2022-12-08T06:56:16;3.40;99.90
18613;DHT22;9436;52.152;21.032;2022-12-08T06:58:44;3.60;99.90
18613;DHT22;9436;52.152;21.032;2022-12-08T07:01:12;3.50;99.90
18613;DHT22;9436;52.152;21.032;2022-12-08T07:03:41;3.70;99.90
18613;DHT22;9436;52.152;21.032;2022-12-08T07:06:13;3.50;99.90
18613;DHT22;9436;52.152;21.032;2022-12-08T07:08:41;3.70;99.90
18613;DHT22;9436;52.152;21.032;2022-12-08T07:11:10;3.70;99.90
18613;DHT22;9436;52.152;21.032;2022-12-08T07:13:37;3.80;99.90
18613;DHT22;9436;52.152;21.032;2022-12-08T07:16:05;3.70;99.90
18613;DHT22;9436;52.152;21.032;2022-12-08T07:18:33;4.40;99.90
18613;DHT22;9436;52.152;21.032;2022-12-08T07:21:04;5.20;99.90
18613;DHT22;9436;52.152;21.032;2022-12-08T07:23:31;5.00;99.90
18613;DHT22;9436;52.152;21.032;2022-12-08T07:25:59;4.80;99.90
18613;DHT22;9436;52.152;21.032;2022-12-08T07:28:30;5.40;99.90
18613;DHT22;9436;52.152;21.032;2022-12-08T07:30:57;5.50;99.90
18613;DHT22;9436;52.152;21.032;2022-12-08T07:33:25;5.20;99.90
18613;DHT22;9436;52.152;21.032;2022-12-08T07:35:55;5.10;99.90
18613;DHT22;9436;52.152;21.032;2022-12-08T07:38:24;5.40;99.90
18613;DHT22;9436;52.152;21.032;2022-12-08T07:40:52;5.90;99.90
18613;DHT22;9436;52.152;21.032;2022-12-08T07:43:20;6.10;99.90
18613;DHT22;9436;52.152;21.032;2022-12-08T07:45:48;6.40;99.90
18613;DHT22;9436;52.152;21.032;2022-12-08T07:48:15;6.30;99.90
18613;DHT22;9436;52.152;21.032;2022-12-08T07:50:43;6.20;99.90
18613;DHT22;9436;52.152;21.032;2022-12-08T07:53:10;5.80;99.90
18613;DHT22;9436;52.152;21.032;2022-12-08T07:55:39;5.50;99.90
18613;DHT22;9436;52.152;21.032;2022-12-08T07:58:07;4.90;99.90
18613;DHT22;9436;52.152;21.032;2022-12-08T08:00:34;4.30;99.90
18613;DHT22;9436;52.152;21.032;2022-12-08T08:03:01;3.90;99.90
18613;DHT22;9436;52.152;21.032;2022-12-08T08:05:28;3.50;99.90
18613;DHT22;9436;52.152;21.032;2022-12-08T08:07:55;3.30;99.90
18613;DHT22;9436;52.152;21.032;2022-12-08T08:10:22;3.20;99.90
18613;DHT22;9436;52.152;21.032;2022-12-08T08:12:51;3.00;99.90
18613;DHT22;9436;52.152;21.032;2022-12-08T08:15:18;2.90;99.90
18613;DHT22;9436;52.152;21.032;2022-12-08T08:17:48;2.80;99.90
18613;DHT22;9436;52.152;21.032;2022-12-08T08:20:15;2.70;99.90
18613;DHT22;9436;52.152;21.032;2022-12-08T08:22:44;2.90;99.90
18613;DHT22;9436;52.152;21.032;2022-12-08T08:25:11;2.90;99.90
18613;DHT22;9436;52.152;21.032;2022-12-08T08:27:38;2.90;99.90
18613;DHT22;9436;52.152;21.032;2022-12-08T08:30:10;3.00;99.90
18613;DHT22;9436;52.152;21.032;2022-12-08T08:32:38;2.90;99.90
18613;DHT22;9436;52.152;21.032;2022-12-08T08:35:06;2.90;99.90
18613;DHT22;9436;52.152;21.032;2022-12-08T08:37:33;2.80;99.90
18613;DHT22;9436;52.152;21.032;2022-12-08T08:40:00;2.90;99.90
18613;DHT22;9436;52.152;21.032;2022-12-08T08:42:27;2.90;99.90
18613;DHT22;9436;52.152;21.032;2022-12-08T08:44:54;3.80;99.90
18613;DHT22;9436;52.152;21.032;2022-12-08T08:47:23;3.80;99.90
18613;DHT22;9436;52.152;21.032;2022-12-08T08:49:50;3.70;99.90
18613;DHT22;9436;52.152;21.032;2022-12-08T08:52:17;3.60;99.90
18613;DHT22;9436;52.152;21.032;2022-12-08T08:54:45;3.30;99.90
18613;DHT22;9436;52.152;21.032;2022-12-08T08:57:12;3.30;99.90
18613;DHT22;9436;52.152;21.032;2022-12-08T08:59:39;3.40;99.90
18613;DHT22;9436;52.152;21.032;2022-12-08T09:02:11;3.40;99.90
18613;DHT22;9436;52.152;21.032;2022-12-08T09:04:42;3.40;99.90
18613;DHT22;9436;52.152;21.032;2022-12-08T09:07:09;3.30;99.90
18613;DHT22;9436;52.152;21.032;2022-12-08T09:09:37;3.40;99.90
18613;DHT22;9436;52.152;21.032;2022-12-08T09:12:04;3.40;99.90
18613;DHT22;9436;52.152;21.032;2022-12-08T09:14:31;3.40;99.90
18613;DHT22;9436;52.152;21.032;2022-12-08T09:16:58;3.60;99.90
18613;DHT22;9436;52.152;21.032;2022-12-08T09:19:25;3.70;99.90
18613;DHT22;9436;52.152;21.032;2022-12-08T09:21:54;3.70;99.90
18613;DHT22;9436;52.152;21.032;2022-12-08T09:24:21;3.80;99.90
18613;DHT22;9436;52.152;21.032;2022-12-08T09:26:49;3.80;99.90
18613;DHT22;9436;52.152;21.032;2022-12-08T09:29:16;3.80;99.90
18613;DHT22;9436;52.152;21.032;2022-12-08T09:31:43;3.80;99.90
18613;DHT22;9436;52.152;21.032;2022-12-08T09:34:11;3.90;99.90
18613;DHT22;9436;52.152;21.032;2022-12-08T09:36:38;3.90;99.90
18613;DHT22;9436;52.152;21.032;2022-12-08T09:39:07;4.00;99.90
18613;DHT22;9436;52.152;21.032;2022-12-08T09:41:35;4.00;99.90
18613;DHT22;9436;52.152;21.032;2022-12-08T09:44:14;4.00;99.90
18613;DHT22;9436;52.152;21.032;2022-12-08T09:46:47;4.00;99.90
18613;DHT22;9436;52.152;21.032;2022-12-08T09:49:18;4.10;99.90
18613;DHT22;9436;52.152;21.032;2022-12-08T09:51:47;4.20;99.90
18613;DHT22;9436;52.152;21.032;2022-12-08T09:54:17;4.20;99.90
18613;DHT22;9436;52.152;21.032;2022-12-08T09:56:47;4.20;99.90
18613;DHT22;9436;52.152;21.032;2022-12-08T09:59:22;4.30;99.90
18613;DHT22;9436;52.152;21.032;2022-12-08T10:01:50;4.30;99.90
18613;DHT22;9436;52.152;21.032;2022-12-08T10:04:22;4.40;99.90
18613;DHT22;9436;52.152;21.032;2022-12-08T10:06:56;4.50;99.90
18613;DHT22;9436;52.152;21.032;2022-12-08T10:09:33;4.50;99.90
18613;DHT22;9436;52.152;21.032;2022-12-08T10:12:04;4.50;99.90
18613;DHT22;9436;52.152;21.032;2022-12-08T10:14:39;4.60;99.90
18613;DHT22;9436;52.152;21.032;2022-12-08T10:17:14;4.80;99.90
18613;DHT22;9436;52.152;21.032;2022-12-08T10:19:43;4.80;99.90
18613;DHT22;9436;52.152;21.032;2022-12-08T10:22:20;4.90;99.90
18613;DHT22;9436;52.152;21.032;2022-12-08T10:24:56;4.90;99.90
18613;DHT22;9436;52.152;21.032;2022-12-08T10:27:24;4.80;99.90
18613;DHT22;9436;52.152;21.032;2022-12-08T10:29:52;4.80;99.90
18613;DHT22;9436;52.152;21.032;2022-12-08T10:32:21;4.90;99.90
18613;DHT22;9436;52.152;21.032;2022-12-08T10:35:02;4.90;99.90
18613;DHT22;9436;52.152;21.032;2022-12-08T10:37:29;4.90;99.90
18613;DHT22;9436;52.152;21.032;2022-12-08T10:40:07;4.80;99.90
18613;DHT22;9436;52.152;21.032;2022-12-08T10:42:37;4.80;99.90
18613;DHT22;9436;52.152;21.032;2022-12-08T10:45:21;4.70;99.90
18613;DHT22;9436;52.152;21.032;2022-12-08T10:47:59;4.70;99.90
18613;DHT22;9436;52.152;21.032;2022-12-08T10:50:30;4.70;99.90
18613;DHT22;9436;52.152;21.032;2022-12-08T10:53:01;4.70;99.90
18613;DHT22;9436;52.152;21.032;2022-12-08T10:55:39;4.80;99.90
18613;DHT22;9436;52.152;21.032;2022-12-08T10:58:26;4.70;99.90
18613;DHT22;9436;52.152;21.032;2022-12-08T11:00:55;4.70;99.90
18613;DHT22;9436;52.152;21.032;2022-12-08T11:03:27;4.80;99.90
18613;DHT22;9436;52.152;21.032;2022-12-08T11:05:58;4.90;99.90
18613;DHT22;9436;52.152;21.032;2022-12-08T11:08:27;4.90;99.90
18613;DHT22;9436;52.152;21.032;2022-12-08T11:10:56;5.00;99.90
18613;DHT22;9436;52.152;21.032;2022-12-08T11:13:25;5.00;99.90
18613;DHT22;9436;52.152;21.032;2022-12-08T11:15:55;5.10;99.90
18613;DHT22;9436;52.152;21.032;2022-12-08T11:18:26;5.10;99.90
18613;DHT22;9436;52.152;21.032;2022-12-08T11:21:00;5.20;99.90
18613;DHT22;9436;52.152;21.032;2022-12-08T11:23:34;5.30;99.90
18613;DHT22;9436;52.152;21.032;2022-12-08T11:26:06;5.30;99.90
18613;DHT22;9436;52.152;21.032;2022-12-08T11:28:37;5.40;99.90
18613;DHT22;9436;52.152;21.032;2022-12-08T11:31:11;5.50;99.90
18613;DHT22;9436;52.152;21.032;2022-12-08T11:33:43;5.50;99.90
18613;DHT22;9436;52.152;21.032;2022-12-08T11:36:13;5.60;99.90
18613;DHT22;9436;52.152;21.032;2022-12-08T11:38:43;5.60;99.90
18613;DHT22;9436;52.152;21.032;2022-12-08T11:41:16;5.60;99.90
18613;DHT22;9436;52.152;21.032;2022-12-08T11:43:49;5.60;99.90
18613;DHT22;9436;52.152;21.032;2022-12-08T11:46:20;5.50;99.90
18613;DHT22;9436;52.152;21.032;2022-12-08T11:48:50;5.40;99.90
18613;DHT22;9436;52.152;21.032;2022-12-08T11:51:21;5.60;99.90
18613;DHT22;9436;52.152;21.032;2022-12-08T11:54:04;5.40;99.90
18613;DHT22;9436;52.152;21.032;2022-12-08T11:56:39;5.20;99.90
18613;DHT22;9436;52.152;21.032;2022-12-08T11:59:14;5.00;99.90
18613;DHT22;9436;52.152;21.032;2022-12-08T12:01:41;4.90;99.90
18613;DHT22;9436;52.152;21.032;2022-12-08T12:04:14;4.70;99.90
18613;DHT22;9436;52.152;21.032;2022-12-08T12:07:08;4.60;99.90
18613;DHT22;9436;52.152;21.032;2022-12-08T12:09:47;4.50;99.90
18613;DHT22;9436;52.152;21.032;2022-12-08T12:12:28;4.40;99.90
18613;DHT22;9436;52.152;21.032;2022-12-08T12:15:38;4.60;99.90
18613;DHT22;9436;52.152;21.032;2022-12-08T12:18:13;4.40;99.90
18613;DHT22;9436;52.152;21.032;2022-12-08T12:20:50;4.40;99.90
18613;DHT22;9436;52.152;21.032;2022-12-08T12:23:25;4.40;99.90
18613;DHT22;9436;52.152;21.032;2022-12-08T12:25:57;4.30;99.90
18613;DHT22;9436;52.152;21.032;2022-12-08T12:28:38;4.30;99.90
18613;DHT22;9436;52.152;21.032;2022-12-08T12:31:08;4.30;99.90
18613;DHT22;9436;52.152;21.032;2022-12-08T12:33:36;4.30;99.90
18613;DHT22;9436;52.152;21.032;2022-12-08T12:36:05;4.30;99.90
18613;DHT22;9436;52.152;21.032;2022-12-08T12:38:35;4.40;99.90
18613;DHT22;9436;52.152;21.032;2022-12-08T12:41:25;4.50;99.90
18613;DHT22;9436;52.152;21.032;2022-12-08T12:46:54;4.40;99.90
18613;DHT22;9436;52.152;21.032;2022-12-08T12:51:54;4.40;99.90
18613;DHT22;9436;52.152;21.032;2022-12-08T12:54:22;4.30;99.90
18613;DHT22;9436;52.152;21.032;2022-12-08T12:56:52;4.30;99.90
18613;DHT22;9436;52.152;21.032;2022-12-08T12:59:39;4.30;99.90
18613;DHT22;9436;52.152;21.032;2022-12-08T13:02:18;4.30;99.90
18613;DHT22;9436;52.152;21.032;2022-12-08T13:04:53;4.30;99.90
18613;DHT22;9436;52.152;21.032;2022-12-08T13:07:22;4.30;99.90
18613;DHT22;9436;52.152;21.032;2022-12-08T13:09:55;4.30;99.90
18613;DHT22;9436;52.152;21.032;2022-12-08T13:12:23;4.60;99.90
18613;DHT22;9436;52.152;21.032;2022-12-08T13:14:57;4.60;99.90
18613;DHT22;9436;52.152;21.032;2022-12-08T13:17:31;4.60;99.90
18613;DHT22;9436;52.152;21.032;2022-12-08T13:20:00;4.60;99.90
18613;DHT22;9436;52.152;21.032;2022-12-08T13:28:12;4.60;99.90
18613;DHT22;9436;52.152;21.032;2022-12-08T13:30:42;4.60;99.90
18613;DHT22;9436;52.152;21.032;2022-12-08T13:33:16;4.70;99.90
18613;DHT22;9436;52.152;21.032;2022-12-08T13:35:49;4.60;99.90
18613;DHT22;9436;52.152;21.032;2022-12-08T13:38:19;4.70;99.90
18613;DHT22;9436;52.152;21.032;2022-12-08T13:40:48;4.60;99.90
18613;DHT22;9436;52.152;21.032;2022-12-08T13:43:21;4.60;99.90
18613;DHT22;9436;52.152;21.032;2022-12-08T13:45:51;4.50;99.90
18613;DHT22;9436;52.152;21.032;2022-12-08T13:48:27;4.50;99.90
18613;DHT22;9436;52.152;21.032;2022-12-08T13:51:06;4.40;99.90
18613;DHT22;9436;52.152;21.032;2022-12-08T13:53:38;4.40;99.90
18613;DHT22;9436;52.152;21.032;2022-12-08T13:56:09;4.40;99.90
18613;DHT22;9436;52.152;21.032;2022-12-08T13:58:39;4.40;99.90
18613;DHT22;9436;52.152;21.032;2022-12-08T14:01:11;4.40;99.90
18613;DHT22;9436;52.152;21.032;2022-12-08T14:03:49;4.60;99.90
18613;DHT22;9436;52.152;21.032;2022-12-08T14:06:21;4.50;99.90
18613;DHT22;9436;52.152;21.032;2022-12-08T14:08:54;5.20;99.90
18613;DHT22;9436;52.152;21.032;2022-12-08T14:11:26;6.10;99.90
18613;DHT22;9436;52.152;21.032;2022-12-08T14:13:55;6.80;99.90
18613;DHT22;9436;52.152;21.032;2022-12-08T14:16:27;7.20;99.90
18613;DHT22;9436;52.152;21.032;2022-12-08T14:19:03;6.70;99.90
18613;DHT22;9436;52.152;21.032;2022-12-08T14:21:31;6.30;99.90
18613;DHT22;9436;52.152;21.032;2022-12-08T14:24:00;6.00;99.90
18613;DHT22;9436;52.152;21.032;2022-12-08T14:26:32;5.70;99.90
18613;DHT22;9436;52.152;21.032;2022-12-08T14:29:00;5.50;99.90
18613;DHT22;9436;52.152;21.032;2022-12-08T14:31:27;5.60;99.90
18613;DHT22;9436;52.152;21.032;2022-12-08T14:33:55;5.90;99.90
18613;DHT22;9436;52.152;21.032;2022-12-08T14:36:22;5.90;99.90
18613;DHT22;9436;52.152;21.032;2022-12-08T14:38:52;5.80;99.90
18613;DHT22;9436;52.152;21.032;2022-12-08T14:41:25;6.00;99.90
18613;DHT22;9436;52.152;21.032;2022-12-08T14:43:57;6.30;99.90
18613;DHT22;9436;52.152;21.032;2022-12-08T14:46:24;5.90;99.90
18613;DHT22;9436;52.152;21.032;2022-12-08T14:48:52;6.00;99.90
18613;DHT22;9436;52.152;21.032;2022-12-08T14:51:25;5.60;99.90
18613;DHT22;9436;52.152;21.032;2022-12-08T14:53:55;5.60;99.90
18613;DHT22;9436;52.152;21.032;2022-12-08T14:56:25;5.70;99.90
18613;DHT22;9436;52.152;21.032;2022-12-08T14:59:05;5.70;99.90
18613;DHT22;9436;52.152;21.032;2022-12-08T15:01:33;5.60;99.90
18613;DHT22;9436;52.152;21.032;2022-12-08T15:04:05;5.90;99.90
18613;DHT22;9436;52.152;21.032;2022-12-08T15:06:35;5.80;99.90
18613;DHT22;9436;52.152;21.032;2022-12-08T15:09:15;5.70;99.90
18613;DHT22;9436;52.152;21.032;2022-12-08T15:11:42;5.70;99.90
18613;DHT22;9436;52.152;21.032;2022-12-08T15:16:55;5.60;99.90
18613;DHT22;9436;52.152;21.032;2022-12-08T15:19:26;5.50;99.90
18613;DHT22;9436;52.152;21.032;2022-12-08T15:21:57;5.30;99.90
18613;DHT22;9436;52.152;21.032;2022-12-08T15:24:26;5.30;99.90
18613;DHT22;9436;52.152;21.032;2022-12-08T15:26:54;5.50;99.90
18613;DHT22;9436;52.152;21.032;2022-12-08T15:29:22;5.80;99.90
18613;DHT22;9436;52.152;21.032;2022-12-08T15:31:52;6.50;99.90
18613;DHT22;9436;52.152;21.032;2022-12-08T15:34:20;7.10;99.90
18613;DHT22;9436;52.152;21.032;2022-12-08T15:36:50;7.60;99.90
18613;DHT22;9436;52.152;21.032;2022-12-08T15:41:55;8.20;99.90
18613;DHT22;9436;52.152;21.032;2022-12-08T15:44:23;8.00;99.90
18613;DHT22;9436;52.152;21.032;2022-12-08T15:46:51;7.20;99.90
18613;DHT22;9436;52.152;21.032;2022-12-08T15:49:21;6.90;99.90
18613;DHT22;9436;52.152;21.032;2022-12-08T15:51:50;7.60;99.90
18613;DHT22;9436;52.152;21.032;2022-12-08T15:54:17;8.40;99.90
18613;DHT22;9436;52.152;21.032;2022-12-08T15:56:49;8.60;99.90
18613;DHT22;9436;52.152;21.032;2022-12-08T15:59:19;8.10;99.90
18613;DHT22;9436;52.152;21.032;2022-12-08T16:01:47;7.30;99.90
18613;DHT22;9436;52.152;21.032;2022-12-08T16:04:16;6.90;99.90
18613;DHT22;9436;52.152;21.032;2022-12-08T16:06:46;6.40;99.90
18613;DHT22;9436;52.152;21.032;2022-12-08T16:09:16;6.10;99.90
18613;DHT22;9436;52.152;21.032;2022-12-08T16:11:47;5.90;99.90
18613;DHT22;9436;52.152;21.032;2022-12-08T16:14:16;5.60;99.90
18613;DHT22;9436;52.152;21.032;2022-12-08T16:16:43;5.20;99.90
18613;DHT22;9436;52.152;21.032;2022-12-08T16:19:13;5.00;99.90
18613;DHT22;9436;52.152;21.032;2022-12-08T16:21:41;4.80;99.90
18613;DHT22;9436;52.152;21.032;2022-12-08T16:24:08;4.70;99.90
18613;DHT22;9436;52.152;21.032;2022-12-08T16:26:36;4.70;99.90